Hewlett, NY

8:11 PM EST on January 25, 2015 (GMT -0500)
Valley Stream | Change Station
CLOSE
Current Station
Personal Weather Station
Location: Valley Stream, NY
Elevation: 12 ft
Nearby Weather Stations

Elev 12 ft 40.65 °N, 73.69 °W | Updated 52 seconds ago

Mostly Cloudy
Mostly Cloudy
35.1 °F
Feels Like 35 °F
N
3.0
Wind Variable Wind from North
Gusts 8.0 mph

Today
High -- | Low -- °F
--% Chance of Precip.
Yesterday
High -- | Low -- °F
Precip. -- in
7:10 AM 5:03 PM
Waxing Crescent, 37% visible
Pressure 29.95 in
Visibility 10.0 miles
Clouds Scattered Clouds 8500 ft
Mostly Cloudy 13000 ft
Overcast 18000 ft
Windchill 35 °F
Dew Point 15 °F
Humidity 43%
Rainfall 0.05 in
Snow Depth Not available.
UV 0 out of 12
Pollen .10 out of 12
Air Quality Not available.
Flu Activity Not available.
METAR KJFK 260051Z 35010KT 10SM SCT085 BKN130 OVC180 02/M13 A2995 RMK AO2 SLP140 T00221133 $

More Conditions Fewer Conditions

Pressure 29.95 in
Visibility 10.0 miles
Clouds Scattered Clouds 8500 ft
Mostly Cloudy 13000 ft
Overcast 18000 ft
Windchill 35 °F
Dew Point 15 °F
Humidity 43%
Rainfall 0.05 in
Snow Depth Not available.
UV 0 out of 12
Pollen .10 out of 12
Air Quality Not available.
Flu Activity Not available.
METAR KJFK 260051Z 35010KT 10SM SCT085 BKN130 OVC180 02/M13 A2995 RMK AO2 SLP140 T00221133 $

More Conditions Fewer Conditions

10-Day Weather Forecast

Almanac

Astronomy

Jan. 25, 2015 Rise Set
Actual Time
Civil Twilight
Nautical Twilight
Astronomical Twilight
Moon
Length of Visible Light
Length of Day
Tomorrow will be .
, % of the Moon is Illuminated

Today's Extremes

State Highs State Lows

Community

WunderPhotos

Upload Photos

1,790,037 photos uploaded!

WunderBlogs® & News

Nearby

Air Quality

  Air Quality AQ Index Pollutant
Not available.

Snow Depth

Station Depth Elevation

Earthquake Activity

City Distance Mag. Time & Date
Minimum magnitude displayed is 2.5.

Coastal Water Temperatures

Place Temperature

Nearby Weather Stations